createdAt,value
2022-11-02T00:01:56.048Z,1.73
2022-11-02T00:04:23.029Z,1.70
2022-11-02T00:06:50.021Z,1.63
2022-11-02T00:09:16.889Z,1.70
2022-11-02T00:11:43.741Z,1.70
2022-11-02T00:14:10.507Z,1.87
2022-11-02T00:16:40.007Z,1.50
2022-11-02T00:19:07.091Z,1.77
2022-11-02T00:21:34.362Z,1.90
2022-11-02T00:24:01.731Z,1.80
2022-11-02T00:26:29.149Z,1.60
2022-11-02T00:28:56.359Z,1.53
2022-11-02T00:31:23.129Z,1.73
2022-11-02T00:33:49.998Z,1.70
2022-11-02T00:36:17.370Z,1.80
2022-11-02T00:38:44.133Z,1.70
2022-11-02T00:41:12.811Z,1.90
2022-11-02T00:43:39.621Z,1.70
2022-11-02T00:46:06.314Z,1.87
2022-11-02T00:48:33.010Z,1.80
2022-11-02T00:50:59.666Z,2.03
2022-11-02T00:53:26.400Z,2.00
2022-11-02T00:55:54.153Z,1.70
2022-11-02T00:58:21.361Z,1.80
2022-11-02T01:00:48.103Z,2.00
2022-11-02T01:03:14.960Z,1.87
2022-11-02T01:05:41.724Z,1.90
2022-11-02T01:08:08.452Z,1.80
2022-11-02T01:10:35.402Z,1.83
2022-11-02T01:13:02.168Z,1.87
2022-11-02T01:15:28.984Z,1.80
2022-11-02T01:17:55.970Z,2.07
2022-11-02T01:20:22.671Z,1.90
2022-11-02T01:22:49.528Z,1.97
2022-11-02T01:25:16.404Z,1.90
2022-11-02T01:27:43.142Z,1.97
2022-11-02T01:30:10.579Z,1.80
2022-11-02T01:32:37.390Z,1.90
2022-11-02T01:35:04.515Z,2.20
2022-11-02T01:37:31.527Z,2.00
2022-11-02T01:39:58.260Z,1.80
2022-11-02T01:42:27.051Z,2.27
2022-11-02T01:44:53.854Z,2.10
2022-11-02T01:47:32.626Z,1.80
2022-11-02T01:50:13.419Z,2.10
2022-11-02T01:52:41.454Z,1.97
2022-11-02T01:55:08.354Z,1.90
2022-11-02T01:57:36.306Z,1.90
2022-11-02T02:00:08.641Z,1.50
2022-11-02T02:02:38.534Z,1.80
2022-11-02T02:05:07.896Z,1.60
2022-11-02T02:07:36.999Z,1.90
2022-11-02T02:10:04.859Z,1.80
2022-11-02T02:12:32.216Z,1.60
2022-11-02T02:14:59.959Z,1.83
2022-11-02T02:17:38.768Z,2.00
2022-11-02T02:20:11.141Z,2.23
2022-11-02T02:22:57.415Z,1.93
2022-11-02T02:25:50.676Z,2.00
2022-11-02T02:28:37.133Z,1.77
2022-11-02T02:31:12.691Z,2.27
2022-11-02T02:33:48.135Z,2.20
2022-11-02T02:36:26.312Z,2.00
2022-11-02T02:39:06.651Z,2.30
2022-11-02T02:41:42.607Z,2.03
2022-11-02T02:44:17.225Z,2.10
2022-11-02T02:46:58.353Z,1.83
2022-11-02T02:49:35.385Z,2.20
2022-11-02T02:52:03.488Z,2.13
2022-11-02T02:54:39.172Z,2.20
2022-11-02T02:57:13.463Z,2.10
2022-11-02T02:59:43.108Z,1.90
2022-11-02T03:02:16.408Z,2.00
2022-11-02T03:04:43.638Z,2.20
2022-11-02T03:07:12.838Z,2.10
2022-11-02T03:09:51.299Z,2.60
2022-11-02T03:12:40.586Z,2.20
2022-11-02T03:15:17.823Z,1.83
2022-11-02T03:17:53.913Z,1.83
2022-11-02T03:20:37.135Z,1.80
2022-11-02T03:23:26.346Z,2.00
2022-11-02T03:26:05.048Z,2.00
2022-11-02T03:28:40.779Z,2.20
2022-11-02T03:31:10.316Z,2.17
2022-11-02T03:33:47.714Z,2.00
2022-11-02T03:36:23.137Z,2.00
2022-11-02T03:38:59.549Z,2.00
2022-11-02T03:41:27.681Z,2.30
2022-11-02T03:43:59.754Z,2.00
2022-11-02T03:46:27.722Z,1.93
2022-11-02T03:48:55.143Z,2.20
2022-11-02T03:51:23.096Z,2.03
2022-11-02T03:54:01.183Z,2.50
2022-11-02T03:56:53.269Z,2.37
2022-11-02T03:59:20.068Z,2.17
2022-11-02T04:01:49.792Z,2.10
2022-11-02T04:04:17.115Z,2.50
2022-11-02T04:06:44.840Z,2.10
2022-11-02T04:09:12.131Z,2.37
2022-11-02T04:11:57.761Z,2.50
2022-11-02T04:14:40.031Z,2.20
2022-11-02T04:17:27.272Z,2.40
2022-11-02T04:19:54.229Z,2.50
2022-11-02T04:22:39.988Z,2.47
2022-11-02T04:25:20.668Z,2.43
2022-11-02T04:27:52.268Z,2.70
2022-11-02T04:30:20.904Z,2.80
2022-11-02T04:33:08.114Z,2.83
2022-11-02T04:35:35.592Z,2.60
2022-11-02T04:38:21.872Z,2.70
2022-11-02T04:40:48.845Z,2.63
2022-11-02T04:43:15.617Z,2.60
2022-11-02T04:45:42.353Z,2.70
2022-11-02T04:48:09.909Z,2.50
2022-11-02T04:50:37.147Z,2.40
2022-11-02T04:53:05.155Z,2.30
2022-11-02T04:55:31.993Z,2.50
2022-11-02T04:57:58.730Z,2.70
2022-11-02T05:00:25.439Z,2.47
2022-11-02T05:02:52.313Z,2.50
2022-11-02T05:05:19.130Z,2.40
2022-11-02T05:07:45.855Z,2.40
2022-11-02T05:10:12.756Z,2.60
2022-11-02T05:12:39.658Z,2.40
2022-11-02T05:15:06.944Z,2.30
2022-11-02T05:17:33.663Z,2.13
2022-11-02T05:20:00.566Z,2.43
2022-11-02T05:22:27.260Z,2.40
2022-11-02T05:24:53.972Z,2.60
2022-11-02T05:27:20.643Z,2.40
2022-11-02T05:29:47.323Z,2.30
2022-11-02T05:32:14.033Z,2.40
2022-11-02T05:34:40.738Z,2.47
2022-11-02T05:37:07.476Z,2.50
2022-11-02T05:39:34.138Z,2.40
2022-11-02T05:42:00.885Z,2.40
2022-11-02T05:44:27.590Z,2.10
2022-11-02T05:46:54.278Z,2.50
2022-11-02T05:49:21.035Z,2.80
2022-11-02T05:51:49.268Z,2.50
2022-11-02T05:54:16.274Z,2.43
2022-11-02T05:56:43.066Z,2.90
2022-11-02T05:59:10.258Z,3.00
2022-11-02T06:01:36.980Z,2.60
2022-11-02T06:04:03.817Z,2.80
2022-11-02T06:06:30.827Z,2.40
2022-11-02T06:08:58.295Z,2.67
2022-11-02T06:11:27.325Z,2.70
2022-11-02T06:13:54.257Z,2.50
2022-11-02T06:16:23.190Z,2.80
2022-11-02T06:18:50.323Z,3.00
2022-11-02T06:21:17.093Z,3.00
2022-11-02T06:23:43.785Z,2.90
2022-11-02T06:26:12.726Z,2.80
2022-11-02T06:28:39.438Z,2.80
2022-11-02T06:31:06.287Z,3.10
2022-11-02T06:33:33.223Z,3.07
2022-11-02T06:36:00.288Z,2.77
2022-11-02T06:38:27.161Z,2.87
2022-11-02T06:40:55.428Z,2.63
2022-11-02T06:43:22.550Z,2.70
2022-11-02T06:45:49.563Z,2.60
2022-11-02T06:48:16.566Z,2.60
2022-11-02T06:50:43.301Z,2.30
2022-11-02T06:53:10.107Z,2.30
2022-11-02T06:55:36.845Z,2.30
2022-11-02T06:58:03.580Z,2.03
2022-11-02T07:00:30.465Z,1.90
2022-11-02T07:03:07.977Z,2.20
2022-11-02T07:05:35.378Z,1.70
2022-11-02T07:08:02.222Z,1.80
2022-11-02T07:10:29.617Z,2.30
2022-11-02T07:12:57.743Z,2.27
2022-11-02T07:15:25.962Z,1.70
2022-11-02T07:17:53.067Z,1.97
2022-11-02T07:20:19.859Z,1.50
2022-11-02T07:22:56.908Z,1.63
2022-11-02T07:25:24.519Z,1.87
2022-11-02T07:27:51.560Z,2.33
2022-11-02T07:30:18.647Z,1.73
2022-11-02T07:32:46.324Z,1.87
2022-11-02T07:35:14.464Z,1.60
2022-11-02T07:37:41.238Z,1.80
2022-11-02T07:40:10.327Z,1.60
2022-11-02T07:42:43.128Z,2.00
2022-11-02T07:45:10.307Z,1.90
2022-11-02T07:47:43.909Z,1.53
2022-11-02T07:50:10.884Z,1.60
2022-11-02T07:52:44.573Z,1.70
2022-11-02T07:55:12.233Z,1.50
2022-11-02T07:57:38.925Z,1.40
2022-11-02T08:00:06.561Z,1.70
2022-11-02T08:02:33.653Z,1.50
2022-11-02T08:05:00.525Z,1.30
2022-11-02T08:07:27.342Z,1.37
2022-11-02T08:09:54.010Z,1.57
2022-11-02T08:12:20.725Z,1.40
2022-11-02T08:14:47.428Z,1.70
2022-11-02T08:17:14.180Z,1.70
2022-11-02T08:19:40.867Z,1.47
2022-11-02T08:22:08.438Z,1.70
2022-11-02T08:24:35.169Z,1.40
2022-11-02T08:27:01.976Z,1.63
2022-11-02T08:29:28.697Z,1.30
2022-11-02T08:31:55.387Z,1.60
2022-11-02T08:34:22.131Z,1.47
2022-11-02T08:36:48.872Z,1.50
2022-11-02T08:39:18.915Z,1.47
2022-11-02T08:41:46.021Z,1.57
2022-11-02T08:44:12.805Z,1.40
2022-11-02T08:46:39.513Z,1.47
2022-11-02T08:49:06.296Z,1.30
2022-11-02T08:51:33.027Z,1.60
2022-11-02T08:53:59.701Z,1.43
2022-11-02T08:56:26.416Z,1.30
2022-11-02T08:58:53.142Z,1.17
2022-11-02T09:01:20.124Z,1.20
2022-11-02T09:03:46.856Z,1.30
2022-11-02T09:06:13.588Z,1.10
2022-11-02T09:08:40.596Z,1.40
2022-11-02T09:11:07.556Z,1.20
2022-11-02T09:13:34.317Z,1.20
2022-11-02T09:16:03.675Z,1.30
2022-11-02T09:18:30.659Z,1.37
2022-11-02T09:21:01.051Z,1.30
2022-11-02T09:23:28.172Z,1.27
2022-11-02T09:25:54.887Z,1.20
2022-11-02T09:28:22.795Z,1.30
2022-11-02T09:30:49.588Z,1.50
2022-11-02T09:33:16.371Z,1.53
2022-11-02T09:35:45.744Z,1.33
2022-11-02T09:38:13.079Z,1.10
2022-11-02T09:40:55.694Z,1.30
2022-11-02T09:43:22.446Z,1.20
2022-11-02T09:45:58.163Z,1.63
2022-11-02T09:48:49.536Z,1.40
2022-11-02T09:51:25.930Z,1.30
2022-11-02T09:54:17.401Z,1.30
2022-11-02T09:56:45.525Z,1.23
2022-11-02T09:59:15.285Z,1.03
2022-11-02T10:02:00.279Z,1.47
2022-11-02T10:04:39.219Z,1.13
2022-11-02T10:07:27.428Z,1.40
2022-11-02T10:10:02.579Z,1.30
2022-11-02T10:12:37.103Z,1.37
2022-11-02T10:15:19.954Z,1.40
2022-11-02T10:17:48.162Z,1.50
2022-11-02T10:20:48.777Z,1.37
2022-11-02T10:23:28.870Z,1.47
2022-11-02T10:25:55.945Z,1.43
2022-11-02T10:28:27.443Z,1.27
2022-11-02T10:30:54.877Z,1.17
2022-11-02T10:33:31.746Z,1.20
2022-11-02T10:36:19.339Z,1.20
2022-11-02T10:39:09.593Z,1.27
2022-11-02T10:42:02.542Z,1.40
2022-11-02T10:45:16.549Z,1.40
2022-11-02T10:47:58.588Z,1.40
2022-11-02T10:50:33.600Z,1.30
2022-11-02T10:53:27.425Z,1.30
2022-11-02T10:56:07.849Z,1.30
2022-11-02T10:58:37.371Z,1.20
2022-11-02T11:01:12.972Z,1.20
2022-11-02T11:04:09.333Z,1.47
2022-11-02T11:06:43.988Z,1.40
2022-11-02T11:09:19.756Z,1.07
2022-11-02T11:12:01.332Z,1.37
2022-11-02T11:20:37.442Z,1.67
2022-11-02T11:23:20.973Z,1.80
2022-11-02T11:25:56.375Z,1.67
2022-11-02T11:28:30.812Z,2.00
2022-11-02T11:31:15.779Z,1.40
2022-11-02T11:34:01.210Z,1.90
2022-11-02T11:36:34.819Z,1.53
2022-11-02T11:41:49.562Z,1.60
2022-11-02T11:44:16.552Z,1.40
2022-11-02T11:46:49.205Z,1.50
2022-11-02T11:49:41.729Z,1.33
2022-11-02T11:52:19.543Z,1.43
2022-11-02T11:54:57.374Z,1.53
2022-11-02T11:57:34.809Z,1.33
2022-11-02T12:00:05.191Z,1.37
2022-11-02T12:02:36.894Z,1.60
2022-11-02T12:05:08.055Z,1.30
2022-11-02T12:08:03.741Z,1.23
2022-11-02T12:10:39.592Z,1.50
2022-11-02T12:13:25.135Z,1.40
2022-11-02T12:16:07.019Z,1.60
2022-11-02T12:18:42.840Z,1.23
2022-11-02T12:21:47.658Z,1.30
2022-11-02T12:24:21.730Z,1.20
2022-11-02T12:27:00.079Z,1.63
2022-11-02T12:29:40.598Z,1.23
2022-11-02T12:32:37.980Z,1.33
2022-11-02T12:35:29.046Z,1.30
2022-11-02T12:38:31.086Z,1.50
2022-11-02T12:41:05.097Z,1.03
2022-11-02T12:43:44.543Z,1.20
2022-11-02T12:46:38.961Z,1.40
2022-11-02T12:49:25.528Z,1.40
2022-11-02T12:51:58.881Z,1.50
2022-11-02T12:54:52.481Z,1.20
2022-11-02T12:57:23.119Z,1.30
2022-11-02T12:59:56.191Z,1.10
2022-11-02T13:02:37.753Z,1.00
2022-11-02T13:05:09.693Z,1.10
2022-11-02T13:07:45.510Z,1.20
2022-11-02T13:10:16.227Z,1.30
2022-11-02T13:12:45.218Z,1.10
2022-11-02T13:15:16.309Z,1.30
2022-11-02T13:18:02.414Z,1.40
2022-11-02T13:20:51.371Z,1.40
2022-11-02T13:23:41.938Z,1.43
2022-11-02T13:26:33.880Z,1.27
2022-11-02T13:29:18.069Z,1.40
2022-11-02T13:31:57.505Z,1.50
2022-11-02T13:34:40.010Z,1.50
2022-11-02T13:37:19.789Z,1.67
2022-11-02T13:39:54.241Z,1.17
2022-11-02T13:42:49.327Z,1.40
2022-11-02T13:45:45.531Z,1.73
2022-11-02T13:48:40.579Z,1.43
2022-11-02T13:51:37.105Z,1.43
2022-11-02T13:54:18.581Z,1.40
2022-11-02T13:56:46.601Z,1.40
2022-11-02T13:59:22.093Z,1.30
2022-11-02T14:01:50.096Z,1.40
2022-11-02T14:04:17.251Z,1.57
2022-11-02T14:07:02.110Z,1.60
2022-11-02T14:09:45.557Z,1.43
2022-11-02T14:12:21.717Z,1.20
2022-11-02T14:15:13.071Z,1.70
2022-11-02T14:17:55.376Z,1.77
2022-11-02T14:20:46.816Z,1.70
2022-11-02T14:23:18.537Z,2.00
2022-11-02T14:25:55.800Z,2.27
2022-11-02T14:28:30.384Z,2.13
2022-11-02T14:31:23.855Z,2.13
2022-11-02T14:33:56.394Z,2.37
2022-11-02T14:36:54.320Z,2.30
2022-11-02T14:39:30.326Z,1.90
2022-11-02T14:42:26.267Z,1.87
2022-11-02T14:45:04.973Z,1.80
2022-11-02T14:47:34.617Z,1.50
2022-11-02T14:50:21.116Z,1.87
2022-11-02T14:53:07.903Z,1.60
2022-11-02T14:55:37.053Z,2.00
2022-11-02T14:58:16.615Z,1.93
2022-11-02T15:00:49.635Z,1.53
2022-11-02T15:03:28.773Z,1.40
2022-11-02T15:06:03.187Z,1.70
2022-11-02T15:08:35.036Z,1.83
2022-11-02T15:11:40.819Z,1.67
2022-11-02T15:14:35.501Z,1.50
2022-11-02T15:17:17.018Z,1.97
2022-11-02T15:19:50.381Z,1.70
2022-11-02T15:22:29.258Z,1.90
2022-11-02T15:25:23.661Z,1.90
2022-11-02T15:27:52.942Z,1.90
2022-11-02T15:30:26.949Z,1.87
2022-11-02T15:33:11.959Z,1.90
2022-11-02T15:35:41.556Z,1.70
2022-11-02T15:38:17.633Z,2.03
2022-11-02T15:40:57.769Z,2.17
2022-11-02T15:44:04.261Z,2.00
2022-11-02T15:46:41.978Z,1.80
2022-11-02T15:49:25.606Z,1.87
2022-11-02T15:52:22.580Z,2.20
2022-11-02T15:55:32.806Z,2.10
2022-11-02T15:58:07.666Z,2.00
2022-11-02T16:00:34.620Z,1.90
2022-11-02T16:03:08.726Z,1.87
2022-11-02T16:05:38.806Z,1.83
2022-11-02T16:08:10.844Z,1.90
2022-11-02T16:10:48.495Z,2.10
2022-11-02T16:13:18.749Z,1.70
2022-11-02T16:15:47.088Z,1.77
2022-11-02T16:18:24.888Z,2.03
2022-11-02T16:20:53.283Z,1.70
2022-11-02T16:23:25.412Z,1.60
2022-11-02T16:25:55.042Z,2.20
2022-11-02T16:28:25.760Z,1.83
2022-11-02T16:31:10.933Z,1.90
2022-11-02T16:33:43.865Z,1.90
2022-11-02T16:36:31.793Z,2.27
2022-11-02T16:39:03.934Z,2.10
2022-11-02T16:41:32.876Z,2.00
2022-11-02T16:44:28.866Z,1.93
2022-11-02T16:47:12.363Z,1.87
2022-11-02T16:49:51.041Z,2.10
2022-11-02T16:52:19.610Z,2.00
2022-11-02T16:54:46.680Z,2.33
2022-11-02T16:57:13.313Z,2.63
2022-11-02T17:00:00.925Z,2.63
2022-11-02T17:02:40.266Z,2.80
2022-11-02T17:05:27.453Z,2.83
2022-11-02T17:08:08.286Z,3.40
2022-11-02T17:10:36.919Z,3.00
2022-11-02T17:13:07.034Z,3.60
2022-11-02T17:15:34.914Z,3.47
2022-11-02T17:18:07.758Z,2.93
2022-11-02T17:20:36.124Z,3.50
2022-11-02T17:23:07.811Z,3.57
2022-11-02T17:25:38.910Z,3.57
2022-11-02T17:28:34.346Z,3.50
2022-11-02T17:31:05.568Z,3.70
2022-11-02T17:33:33.401Z,4.03
2022-11-02T17:36:09.131Z,4.43
2022-11-02T17:38:35.839Z,4.50
2022-11-02T17:41:02.581Z,4.50
2022-11-02T17:43:29.188Z,4.80
2022-11-02T17:45:58.070Z,5.40
2022-11-02T17:48:25.661Z,5.30
2022-11-02T17:50:53.808Z,5.50
2022-11-02T17:53:20.554Z,6.40
2022-11-02T17:55:47.473Z,6.40
2022-11-02T17:58:14.717Z,6.50
2022-11-02T18:00:41.600Z,6.53
2022-11-02T18:03:14.666Z,6.83
2022-11-02T18:05:43.709Z,7.40
2022-11-02T18:08:13.978Z,7.40
2022-11-02T18:10:42.831Z,8.10
2022-11-02T18:13:13.174Z,7.93
2022-11-02T18:15:40.264Z,8.10
2022-11-02T18:18:07.469Z,8.13
2022-11-02T18:20:38.743Z,7.87
2022-11-02T18:23:10.017Z,7.00
2022-11-02T18:25:36.638Z,6.90
2022-11-02T18:28:03.615Z,6.53
2022-11-02T18:30:32.334Z,6.83
2022-11-02T18:33:00.977Z,6.77
2022-11-02T18:35:27.627Z,6.37
2022-11-02T18:37:54.336Z,6.07
2022-11-02T18:40:21.010Z,6.00
2022-11-02T18:42:47.689Z,5.97
2022-11-02T18:45:15.657Z,5.90
2022-11-02T18:47:42.664Z,6.00
2022-11-02T18:50:11.750Z,6.17
2022-11-02T18:52:39.066Z,6.80
2022-11-02T18:55:06.152Z,6.60
2022-11-02T18:57:33.122Z,6.77
2022-11-02T19:00:02.223Z,6.40
2022-11-02T19:02:29.583Z,6.70
2022-11-02T19:04:56.340Z,6.50
2022-11-02T19:07:41.990Z,6.90
2022-11-02T19:10:09.673Z,6.50
2022-11-02T19:12:36.328Z,7.03
2022-11-02T19:15:03.599Z,6.73
2022-11-02T19:17:30.290Z,6.83
2022-11-02T19:19:57.247Z,6.93
2022-11-02T19:22:25.657Z,6.73
2022-11-02T19:24:52.657Z,7.40
2022-11-02T19:27:24.128Z,6.83
2022-11-02T19:29:53.361Z,6.60
2022-11-02T19:32:20.170Z,7.93
2022-11-02T19:34:47.050Z,7.30
2022-11-02T19:37:16.849Z,7.23
2022-11-02T19:39:43.474Z,7.43
2022-11-02T19:42:10.121Z,8.17
2022-11-02T19:44:42.258Z,7.73
2022-11-02T19:47:09.833Z,7.67
2022-11-02T19:49:36.466Z,7.67
2022-11-02T19:52:03.136Z,7.60
2022-11-02T19:54:29.812Z,7.87
2022-11-02T19:56:56.467Z,7.23
2022-11-02T19:59:23.208Z,7.43
2022-11-02T20:01:50.915Z,7.37
2022-11-02T20:04:18.015Z,6.63
2022-11-02T20:06:45.028Z,6.70
2022-11-02T20:09:16.831Z,6.47
2022-11-02T20:11:47.002Z,6.67
2022-11-02T20:14:15.144Z,6.73
2022-11-02T20:16:42.199Z,7.07
2022-11-02T20:19:09.299Z,6.90
2022-11-02T20:21:42.422Z,6.43
2022-11-02T20:24:10.396Z,6.50
2022-11-02T20:26:38.764Z,6.47
2022-11-02T20:29:06.676Z,6.50
2022-11-02T20:31:36.445Z,6.63
2022-11-02T20:34:07.404Z,6.13
2022-11-02T20:36:34.843Z,6.10
2022-11-02T20:39:04.556Z,6.37
2022-11-02T20:41:31.658Z,6.07
2022-11-02T20:43:58.290Z,6.20
2022-11-02T20:46:45.253Z,6.60
2022-11-02T20:49:21.639Z,6.20
2022-11-02T20:51:50.704Z,6.03
2022-11-02T20:54:19.337Z,6.27
2022-11-02T20:56:46.395Z,6.33
2022-11-02T20:59:13.136Z,6.30
2022-11-02T21:01:39.917Z,6.73
2022-11-02T21:04:06.754Z,6.77
2022-11-02T21:06:33.584Z,7.30
2022-11-02T21:09:00.811Z,7.47
2022-11-02T21:11:46.638Z,7.97
2022-11-02T21:14:13.350Z,7.70
2022-11-02T21:16:39.975Z,8.33
2022-11-02T21:19:06.651Z,7.90
2022-11-02T21:21:33.690Z,8.07
2022-11-02T21:24:00.719Z,7.77
2022-11-02T21:26:27.369Z,7.63
2022-11-02T21:28:54.205Z,7.93
2022-11-02T21:31:21.703Z,7.77
2022-11-02T21:33:49.562Z,7.20
2022-11-02T21:36:17.483Z,7.50
2022-11-02T21:38:46.900Z,7.30
2022-11-02T21:41:21.947Z,7.03
2022-11-02T21:43:51.876Z,7.17
2022-11-02T21:46:22.318Z,7.20
2022-11-02T21:48:48.980Z,7.20
2022-11-02T21:51:19.946Z,7.13
2022-11-02T21:53:47.717Z,6.50
2022-11-02T21:56:22.445Z,6.63
2022-11-02T21:58:49.187Z,6.43
2022-11-02T22:01:37.863Z,6.07
2022-11-02T22:04:05.866Z,6.50
2022-11-02T22:06:33.209Z,6.10
2022-11-02T22:09:03.081Z,5.90
2022-11-02T22:11:29.942Z,6.23
2022-11-02T22:13:58.184Z,6.73
2022-11-02T22:16:28.104Z,5.83
2022-11-02T22:18:56.390Z,6.30
2022-11-02T22:21:23.988Z,6.63
2022-11-02T22:23:50.832Z,6.00
2022-11-02T22:26:19.948Z,5.70
2022-11-02T22:28:46.947Z,5.93
2022-11-02T22:31:16.760Z,5.97
2022-11-02T22:33:44.446Z,5.90
2022-11-02T22:36:13.633Z,5.03
2022-11-02T22:38:56.004Z,4.90
2022-11-02T22:41:23.924Z,5.07
2022-11-02T22:43:53.098Z,4.97
2022-11-02T22:46:20.493Z,5.37
2022-11-02T22:48:47.397Z,5.30
2022-11-02T22:51:14.332Z,5.03
2022-11-02T22:53:41.197Z,4.60
2022-11-02T22:56:12.044Z,4.57
2022-11-02T22:58:40.497Z,4.80
2022-11-02T23:01:08.684Z,4.30
2022-11-02T23:03:36.305Z,4.83
2022-11-02T23:06:06.486Z,4.47
2022-11-02T23:08:38.715Z,4.37
2022-11-02T23:11:21.951Z,4.47
2022-11-02T23:13:57.433Z,4.60
2022-11-02T23:16:28.617Z,4.20
2022-11-02T23:19:14.056Z,4.00
2022-11-02T23:21:49.537Z,4.40
2022-11-02T23:24:38.003Z,3.97
2022-11-02T23:27:04.802Z,4.27
2022-11-02T23:29:50.097Z,4.70
2022-11-02T23:32:27.612Z,4.00
2022-11-02T23:35:17.759Z,5.00
2022-11-02T23:37:45.902Z,4.40
2022-11-02T23:40:19.054Z,4.30
2022-11-02T23:42:46.108Z,4.53
2022-11-02T23:45:12.935Z,4.40
2022-11-02T23:47:58.101Z,4.50
2022-11-02T23:50:45.176Z,4.70
2022-11-02T23:53:32.048Z,4.60
2022-11-02T23:56:18.314Z,4.70
2022-11-02T23:58:45.408Z,4.90
